Ana Sayfa
METAR-TAF:

METAR-TAF

Havaalanları :

Comanche National Grassland

Springfield, Colorado, Amerika Birleşik Devletleri

Enlem: 37-17N, Boylam: 102-37W, yükseklik: 1335 m

Güncel hava durumu gözlemi

Rapor saat 00:56 UTC de 32 dakika önce yapıldı.
Rüzgar güneydan 14 kt
Sıcaklık 33°C
Nem 21%
Basınç 1019 hPa

METAR: KSPD 140056Z AUTO 19014KT 33/08 A3010 RMK AO1 PK WND 20030/0003 SLP114 T03280078

Saat: 19:28 (01:28 UTC)


TAF: eksik

4.000'den fazla havaalanı için hava durumu gözlemleri ve tahminleri (METAR ve TAF raporları).

Kullanılabilir istasyonlar harita üzerinde sarı ve kırmızı noktalarla gösterilir.

İstasyonun adını görmek için fareyi noktanın üzerinde gezdirin.

Sonrasında hava gözlem ve tahminlerini görmek için tıklayın.

Haritayı değiştirmek için: yaklaştırmak için siyah artı işaretli yeşil düğmeye ve uzaklaştırmak için de eksi işaretli düğmeye hızla tıklayın; bitişik haritalar için yeşil okları kullanın.


METAR-TAF: